sensor_id;sensor_type;location;lat;lon;timestamp;temperature;humidity
4596;DHT22;2310;49.978;8.742;2023-05-24T00:04:00;13.50;99.90
4596;DHT22;2310;49.978;8.742;2023-05-24T00:08:03;13.40;99.90
4596;DHT22;2310;49.978;8.742;2023-05-24T00:12:04;13.40;99.90
4596;DHT22;2310;49.978;8.742;2023-05-24T00:16:06;13.30;99.90
4596;DHT22;2310;49.978;8.742;2023-05-24T00:20:09;13.20;99.90
4596;DHT22;2310;49.978;8.742;2023-05-24T00:24:12;13.10;99.90
4596;DHT22;2310;49.978;8.742;2023-05-24T00:28:13;13.00;99.90
4596;DHT22;2310;49.978;8.742;2023-05-24T00:32:15;12.90;99.90
4596;DHT22;2310;49.978;8.742;2023-05-24T00:36:17;13.00;99.90
4596;DHT22;2310;49.978;8.742;2023-05-24T00:40:19;12.90;99.90
4596;DHT22;2310;49.978;8.742;2023-05-24T00:44:20;12.80;99.90
4596;DHT22;2310;49.978;8.742;2023-05-24T00:48:22;12.60;99.90
4596;DHT22;2310;49.978;8.742;2023-05-24T00:52:25;12.60;99.90
4596;DHT22;2310;49.978;8.742;2023-05-24T00:56:27;12.50;99.90
4596;DHT22;2310;49.978;8.742;2023-05-24T01:00:29;12.30;99.90
4596;DHT22;2310;49.978;8.742;2023-05-24T01:04:31;12.40;99.90
4596;DHT22;2310;49.978;8.742;2023-05-24T01:08:40;12.30;99.90
4596;DHT22;2310;49.978;8.742;2023-05-24T01:17:11;12.30;99.90
4596;DHT22;2310;49.978;8.742;2023-05-24T01:25:28;11.90;99.90
4596;DHT22;2310;49.978;8.742;2023-05-24T01:29:30;11.90;99.90
4596;DHT22;2310;49.978;8.742;2023-05-24T01:33:32;12.00;99.90
4596;DHT22;2310;49.978;8.742;2023-05-24T01:37:34;11.90;99.90
4596;DHT22;2310;49.978;8.742;2023-05-24T01:41:38;12.00;99.90
4596;DHT22;2310;49.978;8.742;2023-05-24T01:49:58;12.10;99.90
4596;DHT22;2310;49.978;8.742;2023-05-24T01:54:01;12.10;99.90
4596;DHT22;2310;49.978;8.742;2023-05-24T01:58:05;12.20;99.90
4596;DHT22;2310;49.978;8.742;2023-05-24T02:02:08;12.10;99.90
4596;DHT22;2310;49.978;8.742;2023-05-24T02:06:10;11.80;99.90
4596;DHT22;2310;49.978;8.742;2023-05-24T02:10:11;11.80;99.90
4596;DHT22;2310;49.978;8.742;2023-05-24T02:14:13;11.90;99.90
4596;DHT22;2310;49.978;8.742;2023-05-24T02:18:14;11.90;99.90
4596;DHT22;2310;49.978;8.742;2023-05-24T02:22:17;12.00;99.90
4596;DHT22;2310;49.978;8.742;2023-05-24T02:26:21;12.10;99.90
4596;DHT22;2310;49.978;8.742;2023-05-24T02:30:23;12.30;99.90
4596;DHT22;2310;49.978;8.742;2023-05-24T02:34:25;12.30;99.90
4596;DHT22;2310;49.978;8.742;2023-05-24T02:38:27;12.10;99.90
4596;DHT22;2310;49.978;8.742;2023-05-24T02:42:28;12.00;99.90
4596;DHT22;2310;49.978;8.742;2023-05-24T02:46:29;11.80;99.90
4596;DHT22;2310;49.978;8.742;2023-05-24T02:50:31;11.60;99.90
4596;DHT22;2310;49.978;8.742;2023-05-24T02:54:32;11.60;99.90
4596;DHT22;2310;49.978;8.742;2023-05-24T02:58:33;11.70;99.90
4596;DHT22;2310;49.978;8.742;2023-05-24T03:02:37;11.70;99.90
4596;DHT22;2310;49.978;8.742;2023-05-24T03:06:38;11.80;99.90
4596;DHT22;2310;49.978;8.742;2023-05-24T03:10:40;11.60;99.90
4596;DHT22;2310;49.978;8.742;2023-05-24T03:14:41;11.60;99.90
4596;DHT22;2310;49.978;8.742;2023-05-24T03:18:43;11.40;99.90
4596;DHT22;2310;49.978;8.742;2023-05-24T03:22:44;11.40;99.90
4596;DHT22;2310;49.978;8.742;2023-05-24T03:26:45;11.30;99.90
4596;DHT22;2310;49.978;8.742;2023-05-24T03:30:47;11.30;99.90
4596;DHT22;2310;49.978;8.742;2023-05-24T03:34:49;11.40;99.90
4596;DHT22;2310;49.978;8.742;2023-05-24T03:38:51;11.30;99.90
4596;DHT22;2310;49.978;8.742;2023-05-24T03:42:52;11.10;99.90
4596;DHT22;2310;49.978;8.742;2023-05-24T03:46:53;10.90;99.90
4596;DHT22;2310;49.978;8.742;2023-05-24T03:50:55;11.10;99.90
4596;DHT22;2310;49.978;8.742;2023-05-24T03:54:56;11.10;99.90
4596;DHT22;2310;49.978;8.742;2023-05-24T03:58:58;11.20;99.90
4596;DHT22;2310;49.978;8.742;2023-05-24T04:03:04;11.20;99.90
4596;DHT22;2310;49.978;8.742;2023-05-24T04:07:06;11.20;99.90
4596;DHT22;2310;49.978;8.742;2023-05-24T04:11:10;11.20;99.90
4596;DHT22;2310;49.978;8.742;2023-05-24T04:15:11;11.10;99.90
4596;DHT22;2310;49.978;8.742;2023-05-24T04:19:16;11.00;99.90
4596;DHT22;2310;49.978;8.742;2023-05-24T04:23:17;11.20;99.90
4596;DHT22;2310;49.978;8.742;2023-05-24T04:27:19;11.40;99.90
4596;DHT22;2310;49.978;8.742;2023-05-24T04:31:20;11.60;99.90
4596;DHT22;2310;49.978;8.742;2023-05-24T04:35:23;11.60;99.90
4596;DHT22;2310;49.978;8.742;2023-05-24T04:39:25;11.70;99.90
4596;DHT22;2310;49.978;8.742;2023-05-24T04:43:27;12.00;99.90
4596;DHT22;2310;49.978;8.742;2023-05-24T04:47:28;12.20;99.90
4596;DHT22;2310;49.978;8.742;2023-05-24T04:51:30;12.60;99.90
4596;DHT22;2310;49.978;8.742;2023-05-24T04:55:32;12.90;99.90
4596;DHT22;2310;49.978;8.742;2023-05-24T04:59:34;13.30;99.90
4596;DHT22;2310;49.978;8.742;2023-05-24T05:03:35;12.80;99.90
4596;DHT22;2310;49.978;8.742;2023-05-24T05:07:37;12.60;99.90
4596;DHT22;2310;49.978;8.742;2023-05-24T05:11:38;12.80;99.90
4596;DHT22;2310;49.978;8.742;2023-05-24T05:15:40;12.90;99.90
4596;DHT22;2310;49.978;8.742;2023-05-24T05:19:43;12.70;99.90
4596;DHT22;2310;49.978;8.742;2023-05-24T05:23:45;12.90;99.90
4596;DHT22;2310;49.978;8.742;2023-05-24T05:27:46;13.00;99.90
4596;DHT22;2310;49.978;8.742;2023-05-24T05:31:48;13.30;99.90
4596;DHT22;2310;49.978;8.742;2023-05-24T05:35:49;13.50;99.90
4596;DHT22;2310;49.978;8.742;2023-05-24T05:39:52;13.60;99.90
4596;DHT22;2310;49.978;8.742;2023-05-24T05:43:54;13.70;99.90
4596;DHT22;2310;49.978;8.742;2023-05-24T05:47:55;13.50;99.90
4596;DHT22;2310;49.978;8.742;2023-05-24T05:51:57;13.20;99.90
4596;DHT22;2310;49.978;8.742;2023-05-24T05:55:58;13.00;99.90
4596;DHT22;2310;49.978;8.742;2023-05-24T05:59:59;12.70;99.90
4596;DHT22;2310;49.978;8.742;2023-05-24T06:04:01;12.60;99.90
4596;DHT22;2310;49.978;8.742;2023-05-24T06:08:03;12.40;99.90
4596;DHT22;2310;49.978;8.742;2023-05-24T06:12:04;12.40;99.90
4596;DHT22;2310;49.978;8.742;2023-05-24T06:16:06;12.60;99.90
4596;DHT22;2310;49.978;8.742;2023-05-24T06:20:10;12.40;99.90
4596;DHT22;2310;49.978;8.742;2023-05-24T06:24:14;12.40;99.90
4596;DHT22;2310;49.978;8.742;2023-05-24T06:28:15;12.30;99.90
4596;DHT22;2310;49.978;8.742;2023-05-24T06:32:16;12.30;99.90
4596;DHT22;2310;49.978;8.742;2023-05-24T06:36:18;12.40;99.90
4596;DHT22;2310;49.978;8.742;2023-05-24T06:40:19;12.40;99.90
4596;DHT22;2310;49.978;8.742;2023-05-24T06:44:20;12.40;99.90
4596;DHT22;2310;49.978;8.742;2023-05-24T06:48:25;12.50;99.90
4596;DHT22;2310;49.978;8.742;2023-05-24T06:52:27;12.50;99.90
4596;DHT22;2310;49.978;8.742;2023-05-24T06:56:28;12.50;99.90
4596;DHT22;2310;49.978;8.742;2023-05-24T07:00:30;12.70;99.90
4596;DHT22;2310;49.978;8.742;2023-05-24T07:04:31;12.80;99.90
4596;DHT22;2310;49.978;8.742;2023-05-24T07:08:32;12.90;99.90
4596;DHT22;2310;49.978;8.742;2023-05-24T07:12:34;12.90;99.90
4596;DHT22;2310;49.978;8.742;2023-05-24T07:16:35;12.70;99.90
4596;DHT22;2310;49.978;8.742;2023-05-24T07:20:36;13.00;99.90
4596;DHT22;2310;49.978;8.742;2023-05-24T07:24:38;13.20;99.90
4596;DHT22;2310;49.978;8.742;2023-05-24T07:28:39;13.30;99.90
4596;DHT22;2310;49.978;8.742;2023-05-24T07:32:42;13.30;99.90
4596;DHT22;2310;49.978;8.742;2023-05-24T07:36:43;13.30;99.90
4596;DHT22;2310;49.978;8.742;2023-05-24T07:40:45;13.40;99.90
4596;DHT22;2310;49.978;8.742;2023-05-24T07:44:46;13.60;99.90
4596;DHT22;2310;49.978;8.742;2023-05-24T07:48:48;13.90;99.90
4596;DHT22;2310;49.978;8.742;2023-05-24T07:52:49;13.80;99.90
4596;DHT22;2310;49.978;8.742;2023-05-24T07:56:51;13.40;99.90
4596;DHT22;2310;49.978;8.742;2023-05-24T08:00:53;13.50;99.90
4596;DHT22;2310;49.978;8.742;2023-05-24T08:04:54;13.70;99.90
4596;DHT22;2310;49.978;8.742;2023-05-24T08:08:55;13.60;99.90
4596;DHT22;2310;49.978;8.742;2023-05-24T08:12:56;13.80;99.90
4596;DHT22;2310;49.978;8.742;2023-05-24T08:16:58;14.10;99.90
4596;DHT22;2310;49.978;8.742;2023-05-24T08:21:01;14.40;99.90
4596;DHT22;2310;49.978;8.742;2023-05-24T08:25:02;14.60;99.40
4596;DHT22;2310;49.978;8.742;2023-05-24T08:29:04;14.80;99.50
4596;DHT22;2310;49.978;8.742;2023-05-24T08:33:05;14.50;99.10
4596;DHT22;2310;49.978;8.742;2023-05-24T08:37:06;14.30;99.90
4596;DHT22;2310;49.978;8.742;2023-05-24T08:41:10;14.40;99.90
4596;DHT22;2310;49.978;8.742;2023-05-24T08:45:13;14.40;99.90
4596;DHT22;2310;49.978;8.742;2023-05-24T08:49:15;14.40;99.90
4596;DHT22;2310;49.978;8.742;2023-05-24T08:53:17;15.00;98.90
4596;DHT22;2310;49.978;8.742;2023-05-24T08:57:19;15.40;98.70
4596;DHT22;2310;49.978;8.742;2023-05-24T09:01:23;15.00;97.90
4596;DHT22;2310;49.978;8.742;2023-05-24T09:05:25;14.70;97.70
4596;DHT22;2310;49.978;8.742;2023-05-24T09:09:27;14.80;99.90
4596;DHT22;2310;49.978;8.742;2023-05-24T09:13:30;14.80;99.90
4596;DHT22;2310;49.978;8.742;2023-05-24T09:17:33;15.50;99.90
4596;DHT22;2310;49.978;8.742;2023-05-24T09:21:35;16.20;99.90
4596;DHT22;2310;49.978;8.742;2023-05-24T09:25:46;16.30;82.50
4596;DHT22;2310;49.978;8.742;2023-05-24T09:29:44;16.40;94.80
4596;DHT22;2310;49.978;8.742;2023-05-24T09:33:47;16.60;90.40
4596;DHT22;2310;49.978;8.742;2023-05-24T09:37:52;16.80;90.90
4596;DHT22;2310;49.978;8.742;2023-05-24T09:41:55;17.30;80.70
4596;DHT22;2310;49.978;8.742;2023-05-24T09:45:57;17.20;78.50
4596;DHT22;2310;49.978;8.742;2023-05-24T09:50:00;17.40;79.00
4596;DHT22;2310;49.978;8.742;2023-05-24T09:54:03;17.60;74.10
4596;DHT22;2310;49.978;8.742;2023-05-24T09:58:07;18.10;70.60
4596;DHT22;2310;49.978;8.742;2023-05-24T10:02:11;18.60;69.80
4596;DHT22;2310;49.978;8.742;2023-05-24T10:06:12;18.70;69.70
4596;DHT22;2310;49.978;8.742;2023-05-24T10:10:14;18.90;65.30
4596;DHT22;2310;49.978;8.742;2023-05-24T10:14:16;19.20;62.60
4596;DHT22;2310;49.978;8.742;2023-05-24T10:18:18;19.80;58.80
4596;DHT22;2310;49.978;8.742;2023-05-24T10:22:20;19.70;62.50
4596;DHT22;2310;49.978;8.742;2023-05-24T10:26:24;18.30;63.20
4596;DHT22;2310;49.978;8.742;2023-05-24T10:30:48;18.30;63.70
4596;DHT22;2310;49.978;8.742;2023-05-24T10:34:49;18.70;65.20
4596;DHT22;2310;49.978;8.742;2023-05-24T10:38:53;18.50;63.20
4596;DHT22;2310;49.978;8.742;2023-05-24T10:42:54;18.90;64.00
4596;DHT22;2310;49.978;8.742;2023-05-24T10:47:10;18.80;61.10
4596;DHT22;2310;49.978;8.742;2023-05-24T10:51:34;18.70;59.70
4596;DHT22;2310;49.978;8.742;2023-05-24T10:55:33;18.90;59.40
4596;DHT22;2310;49.978;8.742;2023-05-24T10:59:36;19.20;59.10
4596;DHT22;2310;49.978;8.742;2023-05-24T11:03:39;19.00;58.20
4596;DHT22;2310;49.978;8.742;2023-05-24T11:07:41;19.30;56.50
4596;DHT22;2310;49.978;8.742;2023-05-24T11:11:45;19.40;56.10
4596;DHT22;2310;49.978;8.742;2023-05-24T11:15:50;19.70;59.80
4596;DHT22;2310;49.978;8.742;2023-05-24T11:19:53;20.30;62.80
4596;DHT22;2310;49.978;8.742;2023-05-24T11:24:00;20.20;55.00
4596;DHT22;2310;49.978;8.742;2023-05-24T11:28:02;20.10;53.90
4596;DHT22;2310;49.978;8.742;2023-05-24T11:32:07;20.00;57.40
4596;DHT22;2310;49.978;8.742;2023-05-24T11:36:09;19.60;54.80
4596;DHT22;2310;49.978;8.742;2023-05-24T11:40:11;19.90;55.50
4596;DHT22;2310;49.978;8.742;2023-05-24T11:44:16;19.60;52.90
4596;DHT22;2310;49.978;8.742;2023-05-24T11:48:18;20.00;53.60
4596;DHT22;2310;49.978;8.742;2023-05-24T11:52:20;20.50;52.20
4596;DHT22;2310;49.978;8.742;2023-05-24T11:56:23;20.50;51.90
4596;DHT22;2310;49.978;8.742;2023-05-24T12:00:25;19.30;52.00
4596;DHT22;2310;49.978;8.742;2023-05-24T12:04:27;19.40;52.20
4596;DHT22;2310;49.978;8.742;2023-05-24T12:08:29;20.20;54.90
4596;DHT22;2310;49.978;8.742;2023-05-24T12:12:32;20.90;52.30
4596;DHT22;2310;49.978;8.742;2023-05-24T12:16:35;20.20;49.60
4596;DHT22;2310;49.978;8.742;2023-05-24T12:20:37;20.10;50.90
4596;DHT22;2310;49.978;8.742;2023-05-24T12:24:39;19.70;52.20
4596;DHT22;2310;49.978;8.742;2023-05-24T12:28:42;19.40;50.10
4596;DHT22;2310;49.978;8.742;2023-05-24T12:32:44;19.60;52.00
4596;DHT22;2310;49.978;8.742;2023-05-24T12:36:46;19.70;51.30
4596;DHT22;2310;49.978;8.742;2023-05-24T12:40:48;19.30;50.80
4596;DHT22;2310;49.978;8.742;2023-05-24T12:44:51;18.80;49.40
4596;DHT22;2310;49.978;8.742;2023-05-24T12:48:54;19.60;50.60
4596;DHT22;2310;49.978;8.742;2023-05-24T12:52:55;20.30;49.50
4596;DHT22;2310;49.978;8.742;2023-05-24T12:56:57;19.50;50.40
4596;DHT22;2310;49.978;8.742;2023-05-24T13:01:03;19.00;52.80
4596;DHT22;2310;49.978;8.742;2023-05-24T13:05:06;19.30;52.60
4596;DHT22;2310;49.978;8.742;2023-05-24T13:09:08;19.70;50.60
4596;DHT22;2310;49.978;8.742;2023-05-24T13:13:09;19.90;48.10
4596;DHT22;2310;49.978;8.742;2023-05-24T13:17:11;19.60;49.00
4596;DHT22;2310;49.978;8.742;2023-05-24T13:21:12;20.00;48.50
4596;DHT22;2310;49.978;8.742;2023-05-24T13:25:13;20.10;47.30
4596;DHT22;2310;49.978;8.742;2023-05-24T13:29:15;19.70;47.40
4596;DHT22;2310;49.978;8.742;2023-05-24T13:33:18;19.70;49.60
4596;DHT22;2310;49.978;8.742;2023-05-24T13:37:20;19.80;47.10
4596;DHT22;2310;49.978;8.742;2023-05-24T13:41:22;19.40;46.20
4596;DHT22;2310;49.978;8.742;2023-05-24T13:45:24;19.50;47.80
4596;DHT22;2310;49.978;8.742;2023-05-24T13:49:27;19.40;48.10
4596;DHT22;2310;49.978;8.742;2023-05-24T13:53:29;19.40;48.20
4596;DHT22;2310;49.978;8.742;2023-05-24T13:57:30;19.60;46.40
4596;DHT22;2310;49.978;8.742;2023-05-24T14:01:34;19.70;48.90
4596;DHT22;2310;49.978;8.742;2023-05-24T14:05:37;19.60;46.40
4596;DHT22;2310;49.978;8.742;2023-05-24T14:09:41;19.70;46.80
4596;DHT22;2310;49.978;8.742;2023-05-24T14:13:42;19.30;48.30
4596;DHT22;2310;49.978;8.742;2023-05-24T14:17:45;19.40;48.20
4596;DHT22;2310;49.978;8.742;2023-05-24T14:21:46;19.50;48.90
4596;DHT22;2310;49.978;8.742;2023-05-24T14:25:48;19.20;47.00
4596;DHT22;2310;49.978;8.742;2023-05-24T14:29:51;19.40;56.20
4596;DHT22;2310;49.978;8.742;2023-05-24T14:33:52;20.20;53.90
4596;DHT22;2310;49.978;8.742;2023-05-24T14:37:53;20.30;46.20
4596;DHT22;2310;49.978;8.742;2023-05-24T14:41:55;20.80;49.80
4596;DHT22;2310;49.978;8.742;2023-05-24T14:45:56;21.10;46.90
4596;DHT22;2310;49.978;8.742;2023-05-24T14:49:58;20.40;44.50
4596;DHT22;2310;49.978;8.742;2023-05-24T14:53:59;20.20;44.50
4596;DHT22;2310;49.978;8.742;2023-05-24T14:58:01;19.90;45.20
4596;DHT22;2310;49.978;8.742;2023-05-24T15:02:02;19.80;43.60
4596;DHT22;2310;49.978;8.742;2023-05-24T15:06:04;20.10;43.40
4596;DHT22;2310;49.978;8.742;2023-05-24T15:10:05;20.00;41.40
4596;DHT22;2310;49.978;8.742;2023-05-24T15:14:07;19.30;43.50
4596;DHT22;2310;49.978;8.742;2023-05-24T15:18:08;19.20;43.50
4596;DHT22;2310;49.978;8.742;2023-05-24T15:22:10;19.40;44.00
4596;DHT22;2310;49.978;8.742;2023-05-24T15:26:11;19.60;42.00
4596;DHT22;2310;49.978;8.742;2023-05-24T15:30:13;19.70;43.20
4596;DHT22;2310;49.978;8.742;2023-05-24T15:34:14;19.90;42.20
4596;DHT22;2310;49.978;8.742;2023-05-24T15:38:15;19.80;44.00
4596;DHT22;2310;49.978;8.742;2023-05-24T15:42:18;19.50;45.20
4596;DHT22;2310;49.978;8.742;2023-05-24T15:46:21;18.90;46.70
4596;DHT22;2310;49.978;8.742;2023-05-24T15:50:22;18.70;46.90
4596;DHT22;2310;49.978;8.742;2023-05-24T15:54:25;18.70;45.80
4596;DHT22;2310;49.978;8.742;2023-05-24T15:58:27;18.50;45.30
4596;DHT22;2310;49.978;8.742;2023-05-24T16:02:28;18.60;47.50
4596;DHT22;2310;49.978;8.742;2023-05-24T16:06:30;19.00;47.40
4596;DHT22;2310;49.978;8.742;2023-05-24T16:10:31;19.20;51.30
4596;DHT22;2310;49.978;8.742;2023-05-24T16:14:33;19.20;48.20
4596;DHT22;2310;49.978;8.742;2023-05-24T16:18:34;19.60;51.80
4596;DHT22;2310;49.978;8.742;2023-05-24T16:22:45;19.50;48.60
4596;DHT22;2310;49.978;8.742;2023-05-24T16:26:41;19.50;51.10
4596;DHT22;2310;49.978;8.742;2023-05-24T16:30:43;19.30;48.20
4596;DHT22;2310;49.978;8.742;2023-05-24T16:34:44;19.50;49.40
4596;DHT22;2310;49.978;8.742;2023-05-24T16:38:47;19.80;48.90
4596;DHT22;2310;49.978;8.742;2023-05-24T16:42:49;19.90;50.10
4596;DHT22;2310;49.978;8.742;2023-05-24T16:46:52;20.20;47.00
4596;DHT22;2310;49.978;8.742;2023-05-24T16:50:53;19.50;46.60
4596;DHT22;2310;49.978;8.742;2023-05-24T16:54:58;19.30;45.90
4596;DHT22;2310;49.978;8.742;2023-05-24T16:58:59;18.70;47.40
4596;DHT22;2310;49.978;8.742;2023-05-24T17:03:00;18.50;47.80
4596;DHT22;2310;49.978;8.742;2023-05-24T17:07:02;18.50;49.00
4596;DHT22;2310;49.978;8.742;2023-05-24T17:11:04;18.20;50.40
4596;DHT22;2310;49.978;8.742;2023-05-24T17:15:06;18.20;51.60
4596;DHT22;2310;49.978;8.742;2023-05-24T17:19:07;17.80;50.80
4596;DHT22;2310;49.978;8.742;2023-05-24T17:23:09;17.80;51.60
4596;DHT22;2310;49.978;8.742;2023-05-24T17:27:10;17.80;52.40
4596;DHT22;2310;49.978;8.742;2023-05-24T17:31:12;17.60;51.40
4596;DHT22;2310;49.978;8.742;2023-05-24T17:35:16;17.40;52.60
4596;DHT22;2310;49.978;8.742;2023-05-24T17:39:17;17.60;53.30
4596;DHT22;2310;49.978;8.742;2023-05-24T17:43:21;17.70;54.40
4596;DHT22;2310;49.978;8.742;2023-05-24T17:47:22;17.40;53.20
4596;DHT22;2310;49.978;8.742;2023-05-24T17:51:23;17.30;53.10
4596;DHT22;2310;49.978;8.742;2023-05-24T17:55:25;17.40;54.30
4596;DHT22;2310;49.978;8.742;2023-05-24T17:59:27;17.40;55.20
4596;DHT22;2310;49.978;8.742;2023-05-24T18:03:30;17.20;54.50
4596;DHT22;2310;49.978;8.742;2023-05-24T18:07:32;17.10;55.00
4596;DHT22;2310;49.978;8.742;2023-05-24T18:11:34;17.20;54.60
4596;DHT22;2310;49.978;8.742;2023-05-24T18:15:36;17.30;55.20
4596;DHT22;2310;49.978;8.742;2023-05-24T18:19:37;17.30;54.60
4596;DHT22;2310;49.978;8.742;2023-05-24T18:23:38;17.30;54.90
4596;DHT22;2310;49.978;8.742;2023-05-24T18:27:40;17.30;55.40
4596;DHT22;2310;49.978;8.742;2023-05-24T18:31:41;17.20;56.50
4596;DHT22;2310;49.978;8.742;2023-05-24T18:35:42;17.50;56.80
4596;DHT22;2310;49.978;8.742;2023-05-24T18:39:44;17.40;56.80
4596;DHT22;2310;49.978;8.742;2023-05-24T18:43:45;17.50;57.20
4596;DHT22;2310;49.978;8.742;2023-05-24T18:47:46;17.30;57.70
4596;DHT22;2310;49.978;8.742;2023-05-24T18:51:48;17.10;58.40
4596;DHT22;2310;49.978;8.742;2023-05-24T18:55:49;17.20;60.80
4596;DHT22;2310;49.978;8.742;2023-05-24T18:59:50;17.20;63.00
4596;DHT22;2310;49.978;8.742;2023-05-24T19:03:52;17.40;64.80
4596;DHT22;2310;49.978;8.742;2023-05-24T19:07:53;17.20;63.10
4596;DHT22;2310;49.978;8.742;2023-05-24T19:11:54;17.20;64.70
4596;DHT22;2310;49.978;8.742;2023-05-24T19:15:57;17.10;66.20
4596;DHT22;2310;49.978;8.742;2023-05-24T19:20:01;16.90;68.50
4596;DHT22;2310;49.978;8.742;2023-05-24T19:24:03;16.60;70.20
4596;DHT22;2310;49.978;8.742;2023-05-24T19:28:04;16.30;72.90
4596;DHT22;2310;49.978;8.742;2023-05-24T19:32:06;16.30;78.20
4596;DHT22;2310;49.978;8.742;2023-05-24T19:36:08;16.10;80.70
4596;DHT22;2310;49.978;8.742;2023-05-24T19:40:11;16.00;84.60
4596;DHT22;2310;49.978;8.742;2023-05-24T19:44:12;15.80;90.40
4596;DHT22;2310;49.978;8.742;2023-05-24T19:48:13;15.70;92.60
4596;DHT22;2310;49.978;8.742;2023-05-24T19:52:15;15.50;95.00
4596;DHT22;2310;49.978;8.742;2023-05-24T19:56:18;15.60;95.80
4596;DHT22;2310;49.978;8.742;2023-05-24T20:00:20;15.50;96.60
4596;DHT22;2310;49.978;8.742;2023-05-24T20:04:22;15.50;97.30
4596;DHT22;2310;49.978;8.742;2023-05-24T20:08:23;15.30;98.90
4596;DHT22;2310;49.978;8.742;2023-05-24T20:12:26;15.40;99.90
4596;DHT22;2310;49.978;8.742;2023-05-24T20:16:28;15.30;99.90
4596;DHT22;2310;49.978;8.742;2023-05-24T20:20:31;15.30;99.90
4596;DHT22;2310;49.978;8.742;2023-05-24T20:24:32;15.10;99.90
4596;DHT22;2310;49.978;8.742;2023-05-24T20:28:34;15.20;99.90
4596;DHT22;2310;49.978;8.742;2023-05-24T20:32:35;15.10;99.90
4596;DHT22;2310;49.978;8.742;2023-05-24T20:36:36;14.90;99.90
4596;DHT22;2310;49.978;8.742;2023-05-24T20:40:38;14.90;99.90
4596;DHT22;2310;49.978;8.742;2023-05-24T20:44:39;14.80;99.90
4596;DHT22;2310;49.978;8.742;2023-05-24T20:48:41;14.70;99.90
4596;DHT22;2310;49.978;8.742;2023-05-24T20:52:43;14.70;99.90
4596;DHT22;2310;49.978;8.742;2023-05-24T20:56:44;14.40;99.90
4596;DHT22;2310;49.978;8.742;2023-05-24T21:00:45;14.40;99.90
4596;DHT22;2310;49.978;8.742;2023-05-24T21:04:47;14.30;99.90
4596;DHT22;2310;49.978;8.742;2023-05-24T21:08:48;14.20;99.90
4596;DHT22;2310;49.978;8.742;2023-05-24T21:12:49;14.10;99.90
4596;DHT22;2310;49.978;8.742;2023-05-24T21:16:51;14.00;99.90
4596;DHT22;2310;49.978;8.742;2023-05-24T21:20:53;13.90;99.90
4596;DHT22;2310;49.978;8.742;2023-05-24T21:24:54;13.80;99.90
4596;DHT22;2310;49.978;8.742;2023-05-24T21:28:55;13.80;99.90
4596;DHT22;2310;49.978;8.742;2023-05-24T21:32:57;13.80;99.90
4596;DHT22;2310;49.978;8.742;2023-05-24T21:36:58;13.70;99.90
4596;DHT22;2310;49.978;8.742;2023-05-24T21:41:01;13.70;99.90
4596;DHT22;2310;49.978;8.742;2023-05-24T21:45:02;13.70;99.90
4596;DHT22;2310;49.978;8.742;2023-05-24T21:49:04;13.70;99.90
4596;DHT22;2310;49.978;8.742;2023-05-24T21:53:05;13.70;99.90
4596;DHT22;2310;49.978;8.742;2023-05-24T21:57:07;13.80;99.90
4596;DHT22;2310;49.978;8.742;2023-05-24T22:01:08;13.70;99.90
4596;DHT22;2310;49.978;8.742;2023-05-24T22:05:09;13.60;99.90
4596;DHT22;2310;49.978;8.742;2023-05-24T22:09:11;13.50;99.90
4596;DHT22;2310;49.978;8.742;2023-05-24T22:13:13;13.40;99.90
4596;DHT22;2310;49.978;8.742;2023-05-24T22:17:15;13.30;99.90
4596;DHT22;2310;49.978;8.742;2023-05-24T22:21:16;13.20;99.90
4596;DHT22;2310;49.978;8.742;2023-05-24T22:25:19;13.20;99.90
4596;DHT22;2310;49.978;8.742;2023-05-24T22:29:20;13.10;99.90
4596;DHT22;2310;49.978;8.742;2023-05-24T22:33:22;12.90;99.90
4596;DHT22;2310;49.978;8.742;2023-05-24T22:37:23;12.90;99.90
4596;DHT22;2310;49.978;8.742;2023-05-24T22:41:24;13.00;99.90
4596;DHT22;2310;49.978;8.742;2023-05-24T22:45:26;12.80;99.90
4596;DHT22;2310;49.978;8.742;2023-05-24T22:49:27;12.70;99.90
4596;DHT22;2310;49.978;8.742;2023-05-24T22:53:29;12.70;99.90
4596;DHT22;2310;49.978;8.742;2023-05-24T22:57:30;12.70;99.90
4596;DHT22;2310;49.978;8.742;2023-05-24T23:01:32;12.70;99.90
4596;DHT22;2310;49.978;8.742;2023-05-24T23:05:33;12.60;99.90
4596;DHT22;2310;49.978;8.742;2023-05-24T23:09:35;12.50;99.90
4596;DHT22;2310;49.978;8.742;2023-05-24T23:13:37;12.30;99.90
4596;DHT22;2310;49.978;8.742;2023-05-24T23:17:38;12.30;99.90
4596;DHT22;2310;49.978;8.742;2023-05-24T23:21:39;12.20;99.90
4596;DHT22;2310;49.978;8.742;2023-05-24T23:25:42;12.00;99.90
4596;DHT22;2310;49.978;8.742;2023-05-24T23:29:43;12.00;99.90
4596;DHT22;2310;49.978;8.742;2023-05-24T23:33:44;12.00;99.90
4596;DHT22;2310;49.978;8.742;2023-05-24T23:37:46;11.90;99.90
4596;DHT22;2310;49.978;8.742;2023-05-24T23:41:47;11.90;99.90
4596;DHT22;2310;49.978;8.742;2023-05-24T23:45:48;11.80;99.90
4596;DHT22;2310;49.978;8.742;2023-05-24T23:49:50;11.70;99.90
4596;DHT22;2310;49.978;8.742;2023-05-24T23:53:52;11.60;99.90
4596;DHT22;2310;49.978;8.742;2023-05-24T23:57:53;11.70;99.90
